sensor_id;sensor_type;location;lat;lon;timestamp;P1;durP1;ratioP1;P2;durP2;ratioP2
77880;SDS011;67077;50.298;18.996;2023-09-08T00:00:57;19.70;;;13.40;;
77880;SDS011;67077;50.298;18.996;2023-09-08T00:03:32;23.10;;;13.50;;
77880;SDS011;67077;50.298;18.996;2023-09-08T00:05:59;24.60;;;14.30;;
77880;SDS011;67077;50.298;18.996;2023-09-08T00:08:26;22.00;;;12.30;;
77880;SDS011;67077;50.298;18.996;2023-09-08T00:10:53;20.50;;;12.90;;
77880;SDS011;67077;50.298;18.996;2023-09-08T00:13:19;18.70;;;12.90;;
77880;SDS011;67077;50.298;18.996;2023-09-08T00:15:47;20.50;;;12.80;;
77880;SDS011;67077;50.298;18.996;2023-09-08T00:18:14;22.30;;;13.40;;
77880;SDS011;67077;50.298;18.996;2023-09-08T00:20:40;19.40;;;12.00;;
77880;SDS011;67077;50.298;18.996;2023-09-08T00:23:08;20.30;;;12.00;;
77880;SDS011;67077;50.298;18.996;2023-09-08T00:25:35;18.00;;;11.30;;
77880;SDS011;67077;50.298;18.996;2023-09-08T00:28:01;19.10;;;12.20;;
77880;SDS011;67077;50.298;18.996;2023-09-08T00:30:29;17.50;;;12.20;;
77880;SDS011;67077;50.298;18.996;2023-09-08T00:32:56;21.50;;;12.10;;
77880;SDS011;67077;50.298;18.996;2023-09-08T00:35:23;19.50;;;12.30;;
77880;SDS011;67077;50.298;18.996;2023-09-08T00:37:50;21.00;;;11.60;;
77880;SDS011;67077;50.298;18.996;2023-09-08T00:40:17;17.60;;;12.00;;
77880;SDS011;67077;50.298;18.996;2023-09-08T00:42:44;19.90;;;12.30;;
77880;SDS011;67077;50.298;18.996;2023-09-08T00:45:11;21.00;;;12.20;;
77880;SDS011;67077;50.298;18.996;2023-09-08T00:47:38;19.40;;;13.20;;
77880;SDS011;67077;50.298;18.996;2023-09-08T00:50:05;18.70;;;12.00;;
77880;SDS011;67077;50.298;18.996;2023-09-08T00:52:32;19.90;;;12.20;;
77880;SDS011;67077;50.298;18.996;2023-09-08T00:55:00;20.60;;;12.90;;
77880;SDS011;67077;50.298;18.996;2023-09-08T00:57:27;21.50;;;12.40;;
77880;SDS011;67077;50.298;18.996;2023-09-08T00:59:54;20.20;;;12.60;;
77880;SDS011;67077;50.298;18.996;2023-09-08T01:02:21;18.60;;;12.30;;
77880;SDS011;67077;50.298;18.996;2023-09-08T01:04:49;22.40;;;12.80;;
77880;SDS011;67077;50.298;18.996;2023-09-08T01:07:16;22.90;;;13.20;;
77880;SDS011;67077;50.298;18.996;2023-09-08T01:09:46;23.20;;;13.70;;
77880;SDS011;67077;50.298;18.996;2023-09-08T01:12:14;20.20;;;13.20;;
77880;SDS011;67077;50.298;18.996;2023-09-08T01:14:41;23.30;;;14.00;;
77880;SDS011;67077;50.298;18.996;2023-09-08T01:17:08;21.30;;;14.00;;
77880;SDS011;67077;50.298;18.996;2023-09-08T01:19:35;26.50;;;14.70;;
77880;SDS011;67077;50.298;18.996;2023-09-08T01:27:35;21.70;;;13.50;;
77880;SDS011;67077;50.298;18.996;2023-09-08T01:30:07;19.40;;;13.90;;
77880;SDS011;67077;50.298;18.996;2023-09-08T01:32:34;20.30;;;13.60;;
77880;SDS011;67077;50.298;18.996;2023-09-08T01:35:01;21.30;;;13.80;;
77880;SDS011;67077;50.298;18.996;2023-09-08T01:37:29;22.20;;;13.40;;
77880;SDS011;67077;50.298;18.996;2023-09-08T01:39:55;20.10;;;13.20;;
77880;SDS011;67077;50.298;18.996;2023-09-08T01:42:22;20.50;;;13.20;;
77880;SDS011;67077;50.298;18.996;2023-09-08T01:44:49;20.20;;;12.80;;
77880;SDS011;67077;50.298;18.996;2023-09-08T01:47:16;20.50;;;12.60;;
77880;SDS011;67077;50.298;18.996;2023-09-08T01:49:43;19.70;;;13.10;;
77880;SDS011;67077;50.298;18.996;2023-09-08T01:52:10;21.80;;;13.70;;
77880;SDS011;67077;50.298;18.996;2023-09-08T01:54:37;21.50;;;13.20;;
77880;SDS011;67077;50.298;18.996;2023-09-08T01:57:03;21.10;;;13.70;;
77880;SDS011;67077;50.298;18.996;2023-09-08T01:59:31;20.90;;;14.10;;
77880;SDS011;67077;50.298;18.996;2023-09-08T02:01:57;23.90;;;13.80;;
77880;SDS011;67077;50.298;18.996;2023-09-08T02:04:24;23.50;;;13.60;;
77880;SDS011;67077;50.298;18.996;2023-09-08T02:06:51;19.90;;;12.90;;
77880;SDS011;67077;50.298;18.996;2023-09-08T02:09:18;22.20;;;13.00;;
77880;SDS011;67077;50.298;18.996;2023-09-08T02:11:45;22.30;;;13.30;;
77880;SDS011;67077;50.298;18.996;2023-09-08T02:14:12;22.80;;;13.10;;
77880;SDS011;67077;50.298;18.996;2023-09-08T02:16:38;19.30;;;12.80;;
77880;SDS011;67077;50.298;18.996;2023-09-08T02:19:06;20.20;;;13.50;;
77880;SDS011;67077;50.298;18.996;2023-09-08T02:21:33;21.70;;;13.70;;
77880;SDS011;67077;50.298;18.996;2023-09-08T02:23:59;21.60;;;13.40;;
77880;SDS011;67077;50.298;18.996;2023-09-08T02:26:26;21.40;;;13.20;;
77880;SDS011;67077;50.298;18.996;2023-09-08T02:28:54;21.00;;;13.60;;
77880;SDS011;67077;50.298;18.996;2023-09-08T02:31:20;21.10;;;14.30;;
77880;SDS011;67077;50.298;18.996;2023-09-08T02:33:47;24.50;;;14.60;;
77880;SDS011;67077;50.298;18.996;2023-09-08T02:36:14;22.50;;;14.80;;
77880;SDS011;67077;50.298;18.996;2023-09-08T02:38:41;22.90;;;14.70;;
77880;SDS011;67077;50.298;18.996;2023-09-08T02:41:08;22.80;;;14.60;;
77880;SDS011;67077;50.298;18.996;2023-09-08T02:43:35;24.40;;;15.30;;
77880;SDS011;67077;50.298;18.996;2023-09-08T02:46:02;22.90;;;14.50;;
77880;SDS011;67077;50.298;18.996;2023-09-08T02:48:29;23.90;;;15.70;;
77880;SDS011;67077;50.298;18.996;2023-09-08T02:50:55;25.30;;;16.00;;
77880;SDS011;67077;50.298;18.996;2023-09-08T02:53:22;31.10;;;17.40;;
77880;SDS011;67077;50.298;18.996;2023-09-08T02:55:50;26.40;;;16.60;;
77880;SDS011;67077;50.298;18.996;2023-09-08T02:58:17;28.70;;;17.70;;
77880;SDS011;67077;50.298;18.996;2023-09-08T03:00:43;27.20;;;16.30;;
77880;SDS011;67077;50.298;18.996;2023-09-08T03:03:10;26.40;;;15.70;;
77880;SDS011;67077;50.298;18.996;2023-09-08T03:05:37;28.00;;;15.50;;
77880;SDS011;67077;50.298;18.996;2023-09-08T03:08:04;23.30;;;15.20;;
77880;SDS011;67077;50.298;18.996;2023-09-08T03:10:32;24.90;;;15.60;;
77880;SDS011;67077;50.298;18.996;2023-09-08T03:13:03;22.50;;;14.70;;
77880;SDS011;67077;50.298;18.996;2023-09-08T03:15:30;20.50;;;12.90;;
77880;SDS011;67077;50.298;18.996;2023-09-08T03:17:57;20.00;;;13.20;;
77880;SDS011;67077;50.298;18.996;2023-09-08T03:20:25;22.60;;;13.40;;
77880;SDS011;67077;50.298;18.996;2023-09-08T03:22:52;21.60;;;13.60;;
77880;SDS011;67077;50.298;18.996;2023-09-08T03:25:19;22.90;;;13.40;;
77880;SDS011;67077;50.298;18.996;2023-09-08T03:27:47;23.10;;;13.70;;
77880;SDS011;67077;50.298;18.996;2023-09-08T03:30:14;24.10;;;14.10;;
77880;SDS011;67077;50.298;18.996;2023-09-08T03:32:40;25.40;;;14.40;;
77880;SDS011;67077;50.298;18.996;2023-09-08T03:35:08;22.60;;;14.10;;
77880;SDS011;67077;50.298;18.996;2023-09-08T03:37:35;23.80;;;13.40;;
77880;SDS011;67077;50.298;18.996;2023-09-08T03:40:02;22.00;;;12.80;;
77880;SDS011;67077;50.298;18.996;2023-09-08T03:42:33;19.60;;;12.60;;
77880;SDS011;67077;50.298;18.996;2023-09-08T03:45:01;22.70;;;14.10;;
77880;SDS011;67077;50.298;18.996;2023-09-08T03:47:28;22.30;;;13.70;;
77880;SDS011;67077;50.298;18.996;2023-09-08T03:49:54;19.70;;;12.50;;
77880;SDS011;67077;50.298;18.996;2023-09-08T03:52:21;21.50;;;13.20;;
77880;SDS011;67077;50.298;18.996;2023-09-08T03:54:49;21.30;;;12.80;;
77880;SDS011;67077;50.298;18.996;2023-09-08T03:57:16;23.20;;;13.30;;
77880;SDS011;67077;50.298;18.996;2023-09-08T03:59:43;22.40;;;13.30;;
77880;SDS011;67077;50.298;18.996;2023-09-08T04:02:09;23.30;;;13.80;;
77880;SDS011;67077;50.298;18.996;2023-09-08T04:04:36;21.30;;;13.70;;
77880;SDS011;67077;50.298;18.996;2023-09-08T04:07:02;25.10;;;14.00;;
77880;SDS011;67077;50.298;18.996;2023-09-08T04:09:29;20.80;;;13.50;;
77880;SDS011;67077;50.298;18.996;2023-09-08T04:11:58;21.30;;;13.60;;
77880;SDS011;67077;50.298;18.996;2023-09-08T04:14:25;22.70;;;14.00;;
77880;SDS011;67077;50.298;18.996;2023-09-08T04:16:54;21.70;;;14.10;;
77880;SDS011;67077;50.298;18.996;2023-09-08T04:19:20;24.00;;;15.20;;
77880;SDS011;67077;50.298;18.996;2023-09-08T04:21:47;27.70;;;16.50;;
77880;SDS011;67077;50.298;18.996;2023-09-08T04:24:14;27.80;;;15.70;;
77880;SDS011;67077;50.298;18.996;2023-09-08T04:26:41;27.90;;;15.30;;
77880;SDS011;67077;50.298;18.996;2023-09-08T04:29:07;25.20;;;14.80;;
77880;SDS011;67077;50.298;18.996;2023-09-08T04:31:34;26.40;;;15.60;;
77880;SDS011;67077;50.298;18.996;2023-09-08T04:34:01;27.30;;;16.00;;
77880;SDS011;67077;50.298;18.996;2023-09-08T04:36:28;26.90;;;16.40;;
77880;SDS011;67077;50.298;18.996;2023-09-08T04:38:56;26.10;;;15.00;;
77880;SDS011;67077;50.298;18.996;2023-09-08T04:41:23;29.10;;;15.70;;
77880;SDS011;67077;50.298;18.996;2023-09-08T04:43:49;21.60;;;13.80;;
77880;SDS011;67077;50.298;18.996;2023-09-08T04:46:16;22.90;;;14.90;;
77880;SDS011;67077;50.298;18.996;2023-09-08T04:48:42;27.00;;;15.30;;
77880;SDS011;67077;50.298;18.996;2023-09-08T04:51:09;25.70;;;15.10;;
77880;SDS011;67077;50.298;18.996;2023-09-08T04:53:36;23.40;;;15.00;;
77880;SDS011;67077;50.298;18.996;2023-09-08T04:56:03;23.70;;;14.50;;
77880;SDS011;67077;50.298;18.996;2023-09-08T04:58:30;23.80;;;13.70;;
77880;SDS011;67077;50.298;18.996;2023-09-08T05:00:56;20.50;;;13.40;;
77880;SDS011;67077;50.298;18.996;2023-09-08T05:03:23;22.90;;;13.80;;
77880;SDS011;67077;50.298;18.996;2023-09-08T05:05:50;22.40;;;14.50;;
77880;SDS011;67077;50.298;18.996;2023-09-08T05:08:17;22.90;;;13.90;;
77880;SDS011;67077;50.298;18.996;2023-09-08T05:10:44;22.40;;;14.40;;
77880;SDS011;67077;50.298;18.996;2023-09-08T05:13:11;24.40;;;14.20;;
77880;SDS011;67077;50.298;18.996;2023-09-08T05:15:37;23.80;;;14.70;;
77880;SDS011;67077;50.298;18.996;2023-09-08T05:18:05;22.50;;;13.70;;
77880;SDS011;67077;50.298;18.996;2023-09-08T05:20:32;21.20;;;14.20;;
77880;SDS011;67077;50.298;18.996;2023-09-08T05:22:59;23.80;;;14.20;;
77880;SDS011;67077;50.298;18.996;2023-09-08T05:25:25;21.20;;;14.30;;
77880;SDS011;67077;50.298;18.996;2023-09-08T05:27:52;22.30;;;13.70;;
77880;SDS011;67077;50.298;18.996;2023-09-08T05:30:19;22.50;;;14.00;;
77880;SDS011;67077;50.298;18.996;2023-09-08T05:32:46;24.80;;;14.30;;
77880;SDS011;67077;50.298;18.996;2023-09-08T05:35:12;22.70;;;14.30;;
77880;SDS011;67077;50.298;18.996;2023-09-08T05:37:39;30.30;;;18.60;;
77880;SDS011;67077;50.298;18.996;2023-09-08T05:40:06;27.50;;;16.10;;
77880;SDS011;67077;50.298;18.996;2023-09-08T05:42:33;27.00;;;15.00;;
77880;SDS011;67077;50.298;18.996;2023-09-08T05:44:59;25.40;;;14.50;;
77880;SDS011;67077;50.298;18.996;2023-09-08T05:47:26;25.10;;;15.00;;
77880;SDS011;67077;50.298;18.996;2023-09-08T05:49:52;27.60;;;15.50;;
77880;SDS011;67077;50.298;18.996;2023-09-08T05:52:19;25.80;;;15.10;;
77880;SDS011;67077;50.298;18.996;2023-09-08T05:54:45;25.30;;;15.20;;
77880;SDS011;67077;50.298;18.996;2023-09-08T05:57:12;25.60;;;15.10;;
77880;SDS011;67077;50.298;18.996;2023-09-08T05:59:38;30.50;;;15.30;;
77880;SDS011;67077;50.298;18.996;2023-09-08T06:02:05;28.80;;;16.30;;
77880;SDS011;67077;50.298;18.996;2023-09-08T06:04:32;33.80;;;16.60;;
77880;SDS011;67077;50.298;18.996;2023-09-08T06:06:59;28.00;;;15.90;;
77880;SDS011;67077;50.298;18.996;2023-09-08T06:09:26;30.40;;;15.10;;
77880;SDS011;67077;50.298;18.996;2023-09-08T06:11:52;26.20;;;15.00;;
77880;SDS011;67077;50.298;18.996;2023-09-08T06:14:19;25.80;;;14.60;;
77880;SDS011;67077;50.298;18.996;2023-09-08T06:16:46;24.20;;;15.60;;
77880;SDS011;67077;50.298;18.996;2023-09-08T06:19:12;27.50;;;15.50;;
77880;SDS011;67077;50.298;18.996;2023-09-08T06:21:39;27.40;;;15.70;;
77880;SDS011;67077;50.298;18.996;2023-09-08T06:24:06;28.20;;;15.30;;
77880;SDS011;67077;50.298;18.996;2023-09-08T06:26:33;29.40;;;14.90;;
77880;SDS011;67077;50.298;18.996;2023-09-08T06:28:59;27.20;;;15.10;;
77880;SDS011;67077;50.298;18.996;2023-09-08T06:31:26;27.10;;;16.60;;
77880;SDS011;67077;50.298;18.996;2023-09-08T06:33:53;23.40;;;17.00;;
77880;SDS011;67077;50.298;18.996;2023-09-08T06:36:20;24.60;;;16.30;;
77880;SDS011;67077;50.298;18.996;2023-09-08T06:38:46;27.50;;;16.70;;
77880;SDS011;67077;50.298;18.996;2023-09-08T06:41:13;24.00;;;16.80;;
77880;SDS011;67077;50.298;18.996;2023-09-08T06:43:39;25.70;;;16.90;;
77880;SDS011;67077;50.298;18.996;2023-09-08T06:46:06;26.10;;;16.80;;
77880;SDS011;67077;50.298;18.996;2023-09-08T06:48:32;27.80;;;18.40;;
77880;SDS011;67077;50.298;18.996;2023-09-08T06:51:00;33.10;;;19.80;;
77880;SDS011;67077;50.298;18.996;2023-09-08T06:53:27;27.60;;;19.60;;
77880;SDS011;67077;50.298;18.996;2023-09-08T06:55:54;30.50;;;20.20;;
77880;SDS011;67077;50.298;18.996;2023-09-08T06:58:20;32.10;;;22.40;;
77880;SDS011;67077;50.298;18.996;2023-09-08T07:00:47;33.20;;;20.90;;
77880;SDS011;67077;50.298;18.996;2023-09-08T07:03:16;32.60;;;20.60;;
77880;SDS011;67077;50.298;18.996;2023-09-08T07:05:43;34.90;;;20.30;;
77880;SDS011;67077;50.298;18.996;2023-09-08T07:08:09;28.30;;;19.10;;
77880;SDS011;67077;50.298;18.996;2023-09-08T07:10:36;25.80;;;17.20;;
77880;SDS011;67077;50.298;18.996;2023-09-08T07:13:03;25.60;;;16.60;;
77880;SDS011;67077;50.298;18.996;2023-09-08T07:15:30;26.80;;;15.90;;
77880;SDS011;67077;50.298;18.996;2023-09-08T07:17:57;19.50;;;11.90;;
77880;SDS011;67077;50.298;18.996;2023-09-08T07:20:25;26.10;;;14.70;;
77880;SDS011;67077;50.298;18.996;2023-09-08T07:22:52;25.00;;;13.30;;
77880;SDS011;67077;50.298;18.996;2023-09-08T07:25:21;24.60;;;13.50;;
77880;SDS011;67077;50.298;18.996;2023-09-08T07:27:48;24.70;;;13.00;;
77880;SDS011;67077;50.298;18.996;2023-09-08T07:30:19;25.30;;;13.30;;
77880;SDS011;67077;50.298;18.996;2023-09-08T07:32:47;23.80;;;13.30;;
77880;SDS011;67077;50.298;18.996;2023-09-08T07:35:14;23.40;;;15.00;;
77880;SDS011;67077;50.298;18.996;2023-09-08T07:37:43;27.70;;;14.10;;
77880;SDS011;67077;50.298;18.996;2023-09-08T07:40:10;23.80;;;14.30;;
77880;SDS011;67077;50.298;18.996;2023-09-08T07:42:37;22.80;;;12.50;;
77880;SDS011;67077;50.298;18.996;2023-09-08T07:45:05;22.10;;;11.90;;
77880;SDS011;67077;50.298;18.996;2023-09-08T07:47:32;19.10;;;11.70;;
77880;SDS011;67077;50.298;18.996;2023-09-08T07:53:01;20.60;;;13.40;;
77880;SDS011;67077;50.298;18.996;2023-09-08T07:55:30;21.00;;;13.00;;
77880;SDS011;67077;50.298;18.996;2023-09-08T07:57:57;19.60;;;12.20;;
77880;SDS011;67077;50.298;18.996;2023-09-08T08:00:24;22.00;;;11.60;;
77880;SDS011;67077;50.298;18.996;2023-09-08T08:02:53;24.40;;;13.10;;
77880;SDS011;67077;50.298;18.996;2023-09-08T08:05:22;17.10;;;10.90;;
77880;SDS011;67077;50.298;18.996;2023-09-08T08:07:53;19.40;;;11.60;;
77880;SDS011;67077;50.298;18.996;2023-09-08T08:15:09;14.60;;;10.30;;
77880;SDS011;67077;50.298;18.996;2023-09-08T08:18:00;15.80;;;10.10;;
77880;SDS011;67077;50.298;18.996;2023-09-08T08:20:40;21.00;;;10.60;;
77880;SDS011;67077;50.298;18.996;2023-09-08T08:23:10;16.80;;;10.10;;
77880;SDS011;67077;50.298;18.996;2023-09-08T08:25:38;16.00;;;10.00;;
77880;SDS011;67077;50.298;18.996;2023-09-08T08:28:05;14.00;;;9.20;;
77880;SDS011;67077;50.298;18.996;2023-09-08T08:30:32;18.40;;;10.10;;
77880;SDS011;67077;50.298;18.996;2023-09-08T08:33:08;19.10;;;10.30;;
77880;SDS011;67077;50.298;18.996;2023-09-08T08:35:52;15.70;;;9.70;;
77880;SDS011;67077;50.298;18.996;2023-09-08T08:40:50;13.10;;;9.00;;
77880;SDS011;67077;50.298;18.996;2023-09-08T08:43:27;14.70;;;8.80;;
77880;SDS011;67077;50.298;18.996;2023-09-08T08:46:19;18.30;;;9.40;;
77880;SDS011;67077;50.298;18.996;2023-09-08T08:48:56;15.80;;;9.50;;
77880;SDS011;67077;50.298;18.996;2023-09-08T08:52:06;16.40;;;9.10;;
77880;SDS011;67077;50.298;18.996;2023-09-08T08:54:41;12.60;;;8.50;;
77880;SDS011;67077;50.298;18.996;2023-09-08T09:00:46;14.30;;;9.10;;
77880;SDS011;67077;50.298;18.996;2023-09-08T09:03:13;14.00;;;9.00;;
77880;SDS011;67077;50.298;18.996;2023-09-08T09:05:40;14.80;;;9.20;;
77880;SDS011;67077;50.298;18.996;2023-09-08T09:08:07;19.40;;;8.80;;
77880;SDS011;67077;50.298;18.996;2023-09-08T09:10:37;15.90;;;8.80;;
77880;SDS011;67077;50.298;18.996;2023-09-08T09:13:04;12.90;;;9.00;;
77880;SDS011;67077;50.298;18.996;2023-09-08T09:15:32;13.80;;;8.60;;
77880;SDS011;67077;50.298;18.996;2023-09-08T09:18:04;13.60;;;8.60;;
77880;SDS011;67077;50.298;18.996;2023-09-08T09:23:45;16.20;;;9.10;;
77880;SDS011;67077;50.298;18.996;2023-09-08T09:26:22;15.00;;;9.00;;
77880;SDS011;67077;50.298;18.996;2023-09-08T09:28:52;16.30;;;8.90;;
77880;SDS011;67077;50.298;18.996;2023-09-08T09:31:30;15.40;;;9.20;;
77880;SDS011;67077;50.298;18.996;2023-09-08T09:35:15;12.40;;;8.10;;
77880;SDS011;67077;50.298;18.996;2023-09-08T09:37:43;13.00;;;8.10;;
77880;SDS011;67077;50.298;18.996;2023-09-08T09:40:27;11.80;;;7.60;;
77880;SDS011;67077;50.298;18.996;2023-09-08T09:42:55;10.70;;;7.50;;
77880;SDS011;67077;50.298;18.996;2023-09-08T09:45:44;12.60;;;7.90;;
77880;SDS011;67077;50.298;18.996;2023-09-08T09:48:12;10.30;;;7.50;;
77880;SDS011;67077;50.298;18.996;2023-09-08T09:50:40;10.80;;;7.90;;
77880;SDS011;67077;50.298;18.996;2023-09-08T09:53:12;13.30;;;7.80;;
77880;SDS011;67077;50.298;18.996;2023-09-08T09:55:42;11.90;;;7.20;;
77880;SDS011;67077;50.298;18.996;2023-09-08T09:58:10;12.30;;;7.40;;
77880;SDS011;67077;50.298;18.996;2023-09-08T10:00:38;12.10;;;7.70;;
77880;SDS011;67077;50.298;18.996;2023-09-08T10:03:13;11.50;;;7.10;;
77880;SDS011;67077;50.298;18.996;2023-09-08T10:05:43;10.00;;;7.30;;
77880;SDS011;67077;50.298;18.996;2023-09-08T10:08:48;10.80;;;7.50;;
77880;SDS011;67077;50.298;18.996;2023-09-08T10:11:20;12.80;;;7.70;;
77880;SDS011;67077;50.298;18.996;2023-09-08T10:13:50;11.40;;;7.30;;
77880;SDS011;67077;50.298;18.996;2023-09-08T10:16:23;11.20;;;7.10;;
77880;SDS011;67077;50.298;18.996;2023-09-08T10:18:55;12.50;;;7.50;;
77880;SDS011;67077;50.298;18.996;2023-09-08T10:21:26;11.70;;;7.10;;
77880;SDS011;67077;50.298;18.996;2023-09-08T10:24:04;13.00;;;7.40;;
77880;SDS011;67077;50.298;18.996;2023-09-08T10:27:15;10.10;;;7.50;;
77880;SDS011;67077;50.298;18.996;2023-09-08T10:29:57;12.70;;;7.40;;
77880;SDS011;67077;50.298;18.996;2023-09-08T10:32:29;12.10;;;7.30;;
77880;SDS011;67077;50.298;18.996;2023-09-08T10:35:00;12.40;;;6.80;;
77880;SDS011;67077;50.298;18.996;2023-09-08T10:37:29;14.50;;;6.80;;
77880;SDS011;67077;50.298;18.996;2023-09-08T10:40:20;14.10;;;7.00;;
77880;SDS011;67077;50.298;18.996;2023-09-08T10:43:07;11.40;;;7.30;;
77880;SDS011;67077;50.298;18.996;2023-09-08T10:45:36;9.70;;;6.50;;
77880;SDS011;67077;50.298;18.996;2023-09-08T10:48:03;11.70;;;7.00;;
77880;SDS011;67077;50.298;18.996;2023-09-08T10:50:33;10.70;;;6.40;;
77880;SDS011;67077;50.298;18.996;2023-09-08T10:56:01;11.90;;;6.20;;
77880;SDS011;67077;50.298;18.996;2023-09-08T10:58:42;13.40;;;6.90;;
77880;SDS011;67077;50.298;18.996;2023-09-08T11:01:13;12.70;;;7.10;;
77880;SDS011;67077;50.298;18.996;2023-09-08T11:03:45;11.40;;;7.20;;
77880;SDS011;67077;50.298;18.996;2023-09-08T11:06:21;10.50;;;7.10;;
77880;SDS011;67077;50.298;18.996;2023-09-08T11:08:54;9.30;;;7.20;;
77880;SDS011;67077;50.298;18.996;2023-09-08T11:11:23;10.60;;;6.70;;
77880;SDS011;67077;50.298;18.996;2023-09-08T11:13:52;9.30;;;6.60;;
77880;SDS011;67077;50.298;18.996;2023-09-08T11:16:20;13.90;;;7.00;;
77880;SDS011;67077;50.298;18.996;2023-09-08T11:18:54;9.70;;;6.60;;
77880;SDS011;67077;50.298;18.996;2023-09-08T11:21:22;11.40;;;6.80;;
77880;SDS011;67077;50.298;18.996;2023-09-08T11:23:49;10.40;;;6.80;;
77880;SDS011;67077;50.298;18.996;2023-09-08T11:26:25;12.10;;;7.10;;
77880;SDS011;67077;50.298;18.996;2023-09-08T11:29:02;12.90;;;6.70;;
77880;SDS011;67077;50.298;18.996;2023-09-08T11:31:38;10.60;;;6.80;;
77880;SDS011;67077;50.298;18.996;2023-09-08T11:34:07;10.00;;;6.40;;
77880;SDS011;67077;50.298;18.996;2023-09-08T11:36:44;9.20;;;6.30;;
77880;SDS011;67077;50.298;18.996;2023-09-08T11:39:13;9.60;;;6.60;;
77880;SDS011;67077;50.298;18.996;2023-09-08T11:41:45;11.20;;;6.50;;
77880;SDS011;67077;50.298;18.996;2023-09-08T11:44:35;10.10;;;6.70;;
77880;SDS011;67077;50.298;18.996;2023-09-08T11:47:21;9.30;;;6.20;;
77880;SDS011;67077;50.298;18.996;2023-09-08T11:49:52;10.10;;;6.60;;
77880;SDS011;67077;50.298;18.996;2023-09-08T11:52:22;9.90;;;6.10;;
77880;SDS011;67077;50.298;18.996;2023-09-08T11:55:00;9.70;;;6.50;;
77880;SDS011;67077;50.298;18.996;2023-09-08T11:57:27;10.90;;;6.60;;
77880;SDS011;67077;50.298;18.996;2023-09-08T11:59:59;9.20;;;6.10;;
77880;SDS011;67077;50.298;18.996;2023-09-08T12:02:27;11.30;;;6.90;;
77880;SDS011;67077;50.298;18.996;2023-09-08T12:04:55;10.10;;;6.60;;
77880;SDS011;67077;50.298;18.996;2023-09-08T12:07:22;10.90;;;6.30;;
77880;SDS011;67077;50.298;18.996;2023-09-08T12:09:50;14.50;;;6.00;;
77880;SDS011;67077;50.298;18.996;2023-09-08T12:12:18;10.20;;;6.20;;
77880;SDS011;67077;50.298;18.996;2023-09-08T12:14:45;9.60;;;6.30;;
77880;SDS011;67077;50.298;18.996;2023-09-08T12:17:14;9.20;;;6.00;;
77880;SDS011;67077;50.298;18.996;2023-09-08T12:19:44;8.70;;;5.90;;
77880;SDS011;67077;50.298;18.996;2023-09-08T12:22:13;10.70;;;6.30;;
77880;SDS011;67077;50.298;18.996;2023-09-08T12:27:20;7.40;;;6.20;;
77880;SDS011;67077;50.298;18.996;2023-09-08T12:29:59;9.90;;;6.30;;
77880;SDS011;67077;50.298;18.996;2023-09-08T12:32:29;8.80;;;6.60;;
77880;SDS011;67077;50.298;18.996;2023-09-08T12:35:28;11.10;;;6.60;;
77880;SDS011;67077;50.298;18.996;2023-09-08T12:38:05;10.20;;;6.00;;
77880;SDS011;67077;50.298;18.996;2023-09-08T12:40:35;7.20;;;5.70;;
77880;SDS011;67077;50.298;18.996;2023-09-08T12:43:05;8.00;;;6.10;;
77880;SDS011;67077;50.298;18.996;2023-09-08T12:45:34;8.80;;;6.20;;
77880;SDS011;67077;50.298;18.996;2023-09-08T12:48:02;7.50;;;5.50;;
77880;SDS011;67077;50.298;18.996;2023-09-08T12:50:30;8.60;;;6.10;;
77880;SDS011;67077;50.298;18.996;2023-09-08T12:52:57;8.10;;;5.90;;
77880;SDS011;67077;50.298;18.996;2023-09-08T12:55:24;7.50;;;4.80;;
77880;SDS011;67077;50.298;18.996;2023-09-08T12:57:51;9.10;;;5.70;;
77880;SDS011;67077;50.298;18.996;2023-09-08T13:00:41;9.60;;;5.90;;
77880;SDS011;67077;50.298;18.996;2023-09-08T13:03:09;11.70;;;6.10;;
77880;SDS011;67077;50.298;18.996;2023-09-08T13:05:38;10.90;;;6.40;;
77880;SDS011;67077;50.298;18.996;2023-09-08T13:08:06;12.20;;;6.10;;
77880;SDS011;67077;50.298;18.996;2023-09-08T13:10:36;10.70;;;6.30;;
77880;SDS011;67077;50.298;18.996;2023-09-08T13:13:21;9.40;;;5.70;;
77880;SDS011;67077;50.298;18.996;2023-09-08T13:15:48;8.30;;;5.40;;
77880;SDS011;67077;50.298;18.996;2023-09-08T13:18:42;10.70;;;5.80;;
77880;SDS011;67077;50.298;18.996;2023-09-08T13:21:20;8.50;;;5.40;;
77880;SDS011;67077;50.298;18.996;2023-09-08T13:23:51;10.30;;;6.40;;
77880;SDS011;67077;50.298;18.996;2023-09-08T13:26:22;7.90;;;5.90;;
77880;SDS011;67077;50.298;18.996;2023-09-08T13:28:49;13.90;;;6.20;;
77880;SDS011;67077;50.298;18.996;2023-09-08T13:31:16;10.40;;;6.20;;
77880;SDS011;67077;50.298;18.996;2023-09-08T13:33:43;11.10;;;6.00;;
77880;SDS011;67077;50.298;18.996;2023-09-08T13:36:09;7.90;;;6.00;;
77880;SDS011;67077;50.298;18.996;2023-09-08T13:38:36;10.40;;;5.80;;
77880;SDS011;67077;50.298;18.996;2023-09-08T13:44:05;8.80;;;5.60;;
77880;SDS011;67077;50.298;18.996;2023-09-08T13:46:32;10.10;;;5.50;;
77880;SDS011;67077;50.298;18.996;2023-09-08T13:49:15;7.80;;;5.70;;
77880;SDS011;67077;50.298;18.996;2023-09-08T13:51:43;8.00;;;5.70;;
77880;SDS011;67077;50.298;18.996;2023-09-08T13:54:11;10.00;;;5.50;;
77880;SDS011;67077;50.298;18.996;2023-09-08T13:56:39;9.80;;;5.90;;
77880;SDS011;67077;50.298;18.996;2023-09-08T13:59:08;11.90;;;6.10;;
77880;SDS011;67077;50.298;18.996;2023-09-08T14:01:37;10.30;;;6.30;;
77880;SDS011;67077;50.298;18.996;2023-09-08T14:04:05;7.90;;;5.80;;
77880;SDS011;67077;50.298;18.996;2023-09-08T14:06:37;8.30;;;5.80;;
77880;SDS011;67077;50.298;18.996;2023-09-08T14:09:04;8.40;;;6.10;;
77880;SDS011;67077;50.298;18.996;2023-09-08T14:11:30;9.90;;;6.10;;
77880;SDS011;67077;50.298;18.996;2023-09-08T14:13:57;8.40;;;6.10;;
77880;SDS011;67077;50.298;18.996;2023-09-08T14:16:25;10.80;;;5.90;;
77880;SDS011;67077;50.298;18.996;2023-09-08T14:19:09;8.50;;;6.30;;
77880;SDS011;67077;50.298;18.996;2023-09-08T14:21:44;8.50;;;6.40;;
77880;SDS011;67077;50.298;18.996;2023-09-08T14:24:17;9.40;;;6.10;;
77880;SDS011;67077;50.298;18.996;2023-09-08T14:26:47;10.90;;;6.00;;
77880;SDS011;67077;50.298;18.996;2023-09-08T14:29:21;10.60;;;6.50;;
77880;SDS011;67077;50.298;18.996;2023-09-08T14:32:05;9.30;;;6.50;;
77880;SDS011;67077;50.298;18.996;2023-09-08T14:34:35;12.60;;;6.70;;
77880;SDS011;67077;50.298;18.996;2023-09-08T14:37:06;10.30;;;6.20;;
77880;SDS011;67077;50.298;18.996;2023-09-08T14:39:45;12.40;;;6.50;;
77880;SDS011;67077;50.298;18.996;2023-09-08T14:42:14;9.80;;;6.40;;
77880;SDS011;67077;50.298;18.996;2023-09-08T14:44:42;13.30;;;6.20;;
77880;SDS011;67077;50.298;18.996;2023-09-08T14:47:11;12.80;;;6.50;;
77880;SDS011;67077;50.298;18.996;2023-09-08T14:49:46;9.00;;;6.40;;
77880;SDS011;67077;50.298;18.996;2023-09-08T14:52:28;10.30;;;6.70;;
77880;SDS011;67077;50.298;18.996;2023-09-08T14:55:25;10.00;;;6.60;;
77880;SDS011;67077;50.298;18.996;2023-09-08T14:58:01;9.70;;;6.20;;
77880;SDS011;67077;50.298;18.996;2023-09-08T15:00:29;11.60;;;6.40;;
77880;SDS011;67077;50.298;18.996;2023-09-08T15:03:29;8.60;;;6.30;;